Hilger, Montana
Current Conditions -  °F | °C
As of 7:44 AM on Sunday 23 Nov 2014 (Local Time) from KLWT Reporting Station
Overcast Overcast  
Wind Chill: 21°   Ceiling: 4500
Heat Index: 30°   Visibility: 10mi
Dew Point: 25°   Wind: 10mph
Humidity: 82%   Direction: 220°SW
Pressure: 29.85"   Gusts: NA
Location:  47.25°N, 109.36°W
Report Text: KLWT 231444Z AUTO 22009KT 10SM SCT010 SCT038 OVC045 M01/M04 A2985 RMK AO2 SNB24E34 P0000 T10111039
Loading
Personal Weather Stations






























Interactive Weather Map New forecast layout! Learn more

10-Day Weather Forecast

Advertisements
Track Severe Weather on mobile